createdAt,value
2018-03-11T00:01:08.370Z,9.30
2018-03-11T00:03:37.315Z,9.20
2018-03-11T00:06:05.591Z,9.20
2018-03-11T00:08:33.757Z,9.10
2018-03-11T00:11:01.903Z,9.20
2018-03-11T00:13:30.106Z,9.20
2018-03-11T00:15:58.260Z,9.30
2018-03-11T00:18:26.401Z,9.30
2018-03-11T00:20:54.549Z,9.40
2018-03-11T00:23:22.687Z,9.40
2018-03-11T00:25:50.833Z,9.30
2018-03-11T00:28:19.765Z,9.30
2018-03-11T00:30:47.915Z,9.30
2018-03-11T00:33:16.103Z,9.40
2018-03-11T00:35:44.649Z,9.50
2018-03-11T00:38:13.581Z,9.60
2018-03-11T00:40:41.756Z,9.60
2018-03-11T00:43:09.902Z,9.50
2018-03-11T00:45:38.054Z,9.30
2018-03-11T00:48:07.006Z,9.20
2018-03-11T00:50:35.410Z,9.20
2018-03-11T00:53:03.558Z,9.10
2018-03-11T00:55:31.769Z,9.00
2018-03-11T00:58:00.681Z,9.00
2018-03-11T01:00:28.822Z,9.00
2018-03-11T01:02:57.763Z,8.90
2018-03-11T01:05:25.906Z,8.90
2018-03-11T01:07:54.275Z,8.90
2018-03-11T01:10:23.229Z,8.80
2018-03-11T01:12:51.378Z,8.80
2018-03-11T01:15:19.519Z,8.80
2018-03-11T01:17:48.087Z,8.80
2018-03-11T01:20:16.998Z,8.70
2018-03-11T01:22:45.206Z,8.70
2018-03-11T01:25:13.350Z,8.80
2018-03-11T01:27:41.495Z,8.70
2018-03-11T01:30:10.422Z,8.80
2018-03-11T01:32:38.572Z,8.80
2018-03-11T01:35:06.791Z,8.80
2018-03-11T01:37:34.966Z,8.80
2018-03-11T01:40:04.596Z,8.70
2018-03-11T01:42:32.742Z,8.70
2018-03-11T01:45:00.923Z,8.70
2018-03-11T01:47:29.072Z,8.60
2018-03-11T01:49:57.617Z,8.60
2018-03-11T01:52:26.556Z,8.60
2018-03-11T01:54:54.740Z,8.60
2018-03-11T01:57:22.885Z,8.70
2018-03-11T01:59:51.733Z,8.60
2018-03-11T02:02:21.798Z,8.70
2018-03-11T02:04:49.929Z,8.70
2018-03-11T02:07:18.854Z,8.70
2018-03-11T02:09:46.994Z,8.70
2018-03-11T02:12:15.931Z,8.70
2018-03-11T02:14:44.082Z,8.70
2018-03-11T02:17:12.266Z,8.70
2018-03-11T02:19:40.419Z,8.70
2018-03-11T02:22:08.570Z,8.70
2018-03-11T02:24:36.790Z,8.70
2018-03-11T02:27:04.958Z,8.80
2018-03-11T02:29:33.410Z,8.60
2018-03-11T02:32:01.563Z,8.60
2018-03-11T02:34:30.483Z,8.80
2018-03-11T02:36:58.662Z,8.80
2018-03-11T02:39:26.855Z,8.80
2018-03-11T02:41:55.007Z,8.80
2018-03-11T02:44:23.174Z,8.90
2018-03-11T02:46:51.315Z,8.90
2018-03-11T02:49:20.263Z,8.90
2018-03-11T02:51:48.431Z,8.90
2018-03-11T02:54:16.574Z,8.80
2018-03-11T02:56:44.734Z,8.80
2018-03-11T02:59:13.647Z,8.70
2018-03-11T03:01:41.785Z,8.70
2018-03-11T03:04:10.756Z,8.60
2018-03-11T03:06:38.893Z,8.60
2018-03-11T03:09:07.037Z,8.70
2018-03-11T03:11:35.979Z,8.60
2018-03-11T03:14:04.117Z,8.60
2018-03-11T03:16:32.259Z,8.60
2018-03-11T03:19:01.187Z,8.70
2018-03-11T03:21:29.334Z,8.60
2018-03-11T03:23:57.493Z,8.70
2018-03-11T03:26:26.490Z,8.40
2018-03-11T03:28:55.396Z,8.50
2018-03-11T03:31:23.599Z,8.50
2018-03-11T03:33:51.748Z,8.50
2018-03-11T03:36:19.891Z,8.40
2018-03-11T03:38:48.057Z,8.30
2018-03-11T03:41:16.207Z,8.40
2018-03-11T03:43:45.100Z,8.40
2018-03-11T03:46:13.302Z,8.40
2018-03-11T03:48:42.259Z,8.40
2018-03-11T03:51:10.398Z,8.30
2018-03-11T03:53:38.889Z,8.30
2018-03-11T03:56:07.027Z,8.30
2018-03-11T03:58:35.945Z,8.20
2018-03-11T04:01:04.097Z,8.20
2018-03-11T04:03:33.123Z,7.90
2018-03-11T04:06:01.271Z,7.80
2018-03-11T04:08:29.406Z,7.70
2018-03-11T04:10:57.569Z,7.70
2018-03-11T04:13:25.706Z,7.80
2018-03-11T04:15:54.650Z,7.80
2018-03-11T04:18:23.088Z,7.80
2018-03-11T04:20:51.874Z,7.80
2018-03-11T04:23:20.012Z,7.70
2018-03-11T04:25:48.936Z,7.40
2018-03-11T04:28:17.096Z,7.40
2018-03-11T04:30:45.288Z,7.30
2018-03-11T04:33:13.439Z,7.30
2018-03-11T04:35:41.650Z,7.30
2018-03-11T04:38:09.788Z,7.30
2018-03-11T04:40:37.922Z,7.30
2018-03-11T04:43:07.607Z,7.40
2018-03-11T04:45:35.754Z,7.40
2018-03-11T04:48:03.913Z,7.40
2018-03-11T04:50:32.050Z,7.40
2018-03-11T04:53:00.948Z,7.30
2018-03-11T04:55:29.886Z,7.30
2018-03-11T04:57:58.020Z,7.20
2018-03-11T05:00:26.219Z,7.30
2018-03-11T05:02:54.385Z,7.20
2018-03-11T05:05:22.527Z,7.20
2018-03-11T05:07:51.486Z,7.20
2018-03-11T05:10:20.244Z,7.20
2018-03-11T05:12:49.238Z,7.30
2018-03-11T05:15:17.419Z,7.30
2018-03-11T05:17:45.582Z,7.30
2018-03-11T05:20:13.715Z,7.30
2018-03-11T05:22:42.654Z,7.40
2018-03-11T05:25:10.795Z,7.40
2018-03-11T05:27:39.315Z,7.40
2018-03-11T05:30:07.484Z,7.40
2018-03-11T05:32:35.639Z,7.40
2018-03-11T05:35:03.915Z,7.50
2018-03-11T05:37:32.091Z,7.50
2018-03-11T05:40:00.232Z,7.50
2018-03-11T05:42:29.170Z,7.40
2018-03-11T05:44:57.314Z,7.50
2018-03-11T05:47:25.454Z,7.50
2018-03-11T05:49:54.371Z,7.50
2018-03-11T05:52:22.726Z,7.50
2018-03-11T05:54:52.155Z,7.50
2018-03-11T05:57:20.297Z,7.50
2018-03-11T05:59:49.398Z,7.60
2018-03-11T06:02:18.427Z,7.60
2018-03-11T06:04:46.565Z,7.60
2018-03-11T06:07:15.490Z,7.70
2018-03-11T06:09:43.674Z,7.70
2018-03-11T06:12:11.813Z,7.80
2018-03-11T06:14:39.953Z,7.80
2018-03-11T06:17:08.106Z,7.90
2018-03-11T06:19:36.260Z,7.90
2018-03-11T06:22:04.551Z,8.00
2018-03-11T06:24:32.703Z,8.00
2018-03-11T06:27:00.837Z,8.10
2018-03-11T06:29:29.010Z,8.20
2018-03-11T06:31:57.922Z,8.40
2018-03-11T06:34:26.057Z,8.30
2018-03-11T06:36:54.985Z,8.50
2018-03-11T06:39:23.127Z,8.50
2018-03-11T06:41:52.035Z,8.70
2018-03-11T06:44:20.253Z,8.70
2018-03-11T06:46:48.390Z,8.80
2018-03-11T06:49:16.536Z,8.90
2018-03-11T06:51:45.473Z,9.10
2018-03-11T06:54:13.632Z,9.10
2018-03-11T06:56:41.770Z,9.10
2018-03-11T06:59:10.746Z,9.30
2018-03-11T07:01:38.882Z,9.30
2018-03-11T07:04:07.022Z,9.40
2018-03-11T07:06:36.052Z,9.40
2018-03-11T07:09:04.202Z,9.40
2018-03-11T07:11:33.338Z,9.50
2018-03-11T07:14:01.470Z,9.70
2018-03-11T07:16:29.617Z,9.80
2018-03-11T07:18:58.563Z,9.90
2018-03-11T07:21:27.246Z,9.90
2018-03-11T07:23:55.410Z,10.00
2018-03-11T07:26:23.989Z,10.00
2018-03-11T07:28:52.139Z,10.10
2018-03-11T07:31:20.306Z,10.10
2018-03-11T07:33:48.570Z,10.30
2018-03-11T07:36:17.478Z,10.60
2018-03-11T07:38:45.633Z,10.50
2018-03-11T07:41:14.564Z,11.00
2018-03-11T07:43:42.713Z,11.00
2018-03-11T07:46:10.850Z,11.10
2018-03-11T07:48:39.855Z,11.00
2018-03-11T07:51:08.766Z,11.00
2018-03-11T07:53:36.901Z,10.90
2018-03-11T07:56:05.146Z,10.90
2018-03-11T07:58:33.294Z,10.80
2018-03-11T08:01:01.435Z,10.90
2018-03-11T08:03:30.375Z,11.00
2018-03-11T08:05:58.524Z,11.00
2018-03-11T08:08:26.674Z,11.00
2018-03-11T08:10:55.626Z,11.20
2018-03-11T08:13:23.766Z,11.20
2018-03-11T08:15:51.974Z,11.30
2018-03-11T08:18:20.214Z,11.50
2018-03-11T08:20:48.976Z,11.60
2018-03-11T08:23:17.887Z,11.60
2018-03-11T08:25:46.081Z,11.60
2018-03-11T08:28:14.866Z,11.50
2018-03-11T08:30:43.011Z,11.70
2018-03-11T08:33:11.190Z,11.80
2018-03-11T08:35:39.336Z,11.90
2018-03-11T08:38:08.301Z,11.90
2018-03-11T08:40:36.482Z,11.80
2018-03-11T08:43:04.626Z,11.90
2018-03-11T08:45:32.784Z,12.00
2018-03-11T08:48:01.011Z,12.00
2018-03-11T08:50:29.318Z,12.10
2018-03-11T08:52:57.483Z,12.30
2018-03-11T08:55:25.632Z,12.50
2018-03-11T08:57:53.783Z,12.70
2018-03-11T09:00:21.946Z,12.80
2018-03-11T09:02:50.115Z,12.80
2018-03-11T09:05:18.274Z,12.80
2018-03-11T09:07:46.440Z,12.90
2018-03-11T09:10:14.630Z,12.90
2018-03-11T09:12:42.798Z,13.20
2018-03-11T09:15:10.942Z,13.40
2018-03-11T09:17:39.118Z,13.50
2018-03-11T09:20:07.262Z,13.50
2018-03-11T09:22:36.171Z,13.70
2018-03-11T09:25:05.106Z,13.90
2018-03-11T09:27:33.265Z,13.80
2018-03-11T09:30:01.406Z,13.90
2018-03-11T09:32:29.590Z,14.10
2018-03-11T09:34:57.725Z,14.30
2018-03-11T09:37:25.870Z,14.50
2018-03-11T09:39:54.042Z,14.50
2018-03-11T09:42:22.173Z,14.70
2018-03-11T09:44:50.341Z,14.90
2018-03-11T09:47:19.301Z,15.10
2018-03-11T09:49:47.443Z,15.10
2018-03-11T09:52:15.582Z,15.20
2018-03-11T09:54:43.749Z,15.10
2018-03-11T09:57:12.671Z,15.40
2018-03-11T09:59:40.851Z,15.40
2018-03-11T10:02:09.011Z,15.70
2018-03-11T10:04:37.511Z,16.00
2018-03-11T10:07:05.673Z,16.30
2018-03-11T10:09:33.834Z,16.20
2018-03-11T10:12:01.977Z,16.30
2018-03-11T10:14:31.214Z,16.50
2018-03-11T10:16:59.489Z,16.50
2018-03-11T10:19:27.627Z,16.90
2018-03-11T10:21:57.981Z,17.30
2018-03-11T10:24:26.144Z,17.30
2018-03-11T10:26:54.283Z,17.60
2018-03-11T10:29:23.190Z,17.80
2018-03-11T10:31:52.121Z,17.90
2018-03-11T10:34:20.294Z,17.90
2018-03-11T10:36:48.438Z,18.00
2018-03-11T10:39:16.570Z,18.10
2018-03-11T10:41:44.737Z,18.50
2018-03-11T10:44:12.890Z,18.70
2018-03-11T10:46:41.447Z,18.80
2018-03-11T10:49:09.642Z,18.90
2018-03-11T10:51:37.786Z,19.10
2018-03-11T10:54:05.929Z,19.30
2018-03-11T10:56:34.863Z,19.50
2018-03-11T10:59:03.022Z,19.40
2018-03-11T11:01:36.711Z,19.60
2018-03-11T11:04:04.854Z,19.80
2018-03-11T11:06:32.987Z,20.30
2018-03-11T11:09:01.137Z,20.70
2018-03-11T11:11:29.271Z,20.90
2018-03-11T11:13:57.423Z,21.40
2018-03-11T11:16:25.591Z,21.70
2018-03-11T11:18:53.731Z,21.70
2018-03-11T11:21:21.913Z,21.50
2018-03-11T11:23:50.191Z,21.00
2018-03-11T11:26:18.330Z,21.00
2018-03-11T11:28:48.023Z,20.90
2018-03-11T11:31:16.180Z,20.90
2018-03-11T11:33:44.350Z,20.90
2018-03-11T11:36:12.486Z,20.60
2018-03-11T11:38:40.646Z,20.30
2018-03-11T11:41:08.782Z,20.20
2018-03-11T11:43:36.946Z,20.60
2018-03-11T11:46:05.140Z,20.50
2018-03-11T11:48:34.045Z,19.80
2018-03-11T11:51:02.186Z,19.70
2018-03-11T11:53:30.338Z,19.70
2018-03-11T11:55:58.470Z,18.90
2018-03-11T11:58:26.830Z,19.20
2018-03-11T12:00:55.755Z,19.70
2018-03-11T12:03:23.889Z,19.70
2018-03-11T12:05:52.786Z,21.50
2018-03-11T12:08:21.705Z,22.10
2018-03-11T12:10:49.845Z,22.10
2018-03-11T12:13:18.758Z,23.50
2018-03-11T12:15:46.910Z,23.40
2018-03-11T12:18:16.278Z,23.90
2018-03-11T12:20:44.423Z,23.80
2018-03-11T12:23:12.587Z,24.50
2018-03-11T12:25:41.749Z,24.60
2018-03-11T12:28:10.702Z,25.70
2018-03-11T12:30:38.839Z,25.60
2018-03-11T12:33:06.980Z,25.70
2018-03-11T12:35:35.914Z,25.50
2018-03-11T12:38:04.049Z,25.50
2018-03-11T12:40:32.968Z,26.40
2018-03-11T12:43:01.138Z,26.40
2018-03-11T12:45:29.274Z,27.30
2018-03-11T12:47:58.196Z,27.80
2018-03-11T12:50:26.338Z,27.80
2018-03-11T12:52:55.251Z,28.00
2018-03-11T12:55:23.442Z,27.90
2018-03-11T12:57:51.531Z,27.70
2018-03-11T13:00:20.267Z,26.80
2018-03-11T13:02:49.149Z,26.10
2018-03-11T13:05:18.013Z,25.70
2018-03-11T13:07:46.102Z,25.60
2018-03-11T13:10:14.203Z,25.80
2018-03-11T13:12:42.320Z,25.80
2018-03-11T13:15:10.455Z,25.60
2018-03-11T13:17:38.576Z,25.80
2018-03-11T13:20:24.606Z,25.10
2018-03-11T13:22:52.747Z,24.50
2018-03-11T13:25:21.619Z,24.70
2018-03-11T13:28:07.689Z,24.70
2018-03-11T13:30:35.794Z,25.70
2018-03-11T13:33:21.840Z,26.90
2018-03-11T13:35:49.931Z,27.70
2018-03-11T13:41:31.044Z,26.80
2018-03-11T13:43:59.166Z,26.60
2018-03-11T13:46:45.434Z,26.50
2018-03-11T13:49:14.314Z,27.60
2018-03-11T13:52:00.443Z,27.60
2018-03-11T13:54:29.302Z,29.60
2018-03-11T14:00:08.314Z,29.80
2018-03-11T14:02:36.424Z,29.60
2018-03-11T14:05:05.325Z,30.10
2018-03-11T14:07:34.246Z,28.90
2018-03-11T14:10:02.399Z,28.90
2018-03-11T14:12:30.542Z,28.60
2018-03-11T14:14:58.699Z,27.80
2018-03-11T14:17:26.831Z,28.40
2018-03-11T14:19:54.965Z,28.30
2018-03-11T14:22:23.897Z,29.60
2018-03-11T14:24:52.073Z,29.50
2018-03-11T14:27:20.250Z,30.40
2018-03-11T14:29:48.389Z,30.60
2018-03-11T14:32:17.310Z,28.80
2018-03-11T14:34:45.482Z,28.80
2018-03-11T14:37:13.627Z,29.70
2018-03-11T14:39:41.833Z,30.40
2018-03-11T14:42:10.041Z,30.10
2018-03-11T14:44:38.281Z,29.90
2018-03-11T14:47:06.419Z,28.90
2018-03-11T14:49:34.622Z,28.30
2018-03-11T14:52:02.777Z,28.30
2018-03-11T14:54:30.914Z,28.40
2018-03-11T14:56:59.648Z,28.90
2018-03-11T14:59:28.354Z,28.40
2018-03-11T15:01:56.490Z,29.00
2018-03-11T15:04:24.625Z,29.10
2018-03-11T15:06:52.793Z,29.40
2018-03-11T15:09:20.934Z,29.50
2018-03-11T15:11:49.074Z,29.20
2018-03-11T15:14:17.238Z,28.60
2018-03-11T15:16:46.160Z,28.70
2018-03-11T15:19:14.289Z,28.70
2018-03-11T15:21:43.227Z,27.40
2018-03-11T15:24:11.394Z,27.40
2018-03-11T15:26:39.530Z,27.20
2018-03-11T15:29:08.510Z,27.30
2018-03-11T15:31:36.653Z,27.30
2018-03-11T15:34:04.786Z,27.40
2018-03-11T15:36:33.390Z,27.40
2018-03-11T15:39:01.967Z,27.60
2018-03-11T15:41:30.105Z,26.90
2018-03-11T15:43:59.241Z,25.90
2018-03-11T15:46:27.954Z,25.80
2018-03-11T15:48:56.097Z,25.50
2018-03-11T15:51:24.266Z,24.60
2018-03-11T15:53:52.407Z,23.60
2018-03-11T15:56:21.384Z,23.00
2018-03-11T15:58:50.325Z,22.90
2018-03-11T16:01:18.479Z,22.90
2018-03-11T16:03:46.635Z,23.10
2018-03-11T16:06:15.565Z,22.40
2018-03-11T16:08:43.718Z,22.40
2018-03-11T16:11:11.881Z,22.20
2018-03-11T16:13:40.018Z,22.40
2018-03-11T16:16:08.177Z,22.30
2018-03-11T16:18:36.997Z,22.20
2018-03-11T16:21:05.898Z,21.90
2018-03-11T16:23:34.034Z,21.90
2018-03-11T16:26:02.681Z,21.70
2018-03-11T16:28:30.849Z,21.40
2018-03-11T16:30:58.990Z,21.10
2018-03-11T16:33:27.950Z,20.60
2018-03-11T16:35:56.106Z,20.50
2018-03-11T16:38:24.246Z,20.30
2018-03-11T16:40:52.392Z,20.00
2018-03-11T16:43:21.326Z,19.60
2018-03-11T16:45:49.471Z,19.60
2018-03-11T16:48:17.615Z,19.30
2018-03-11T16:50:45.856Z,19.10
2018-03-11T16:53:14.011Z,18.80
2018-03-11T16:55:42.190Z,18.50
2018-03-11T16:58:10.358Z,18.30
2018-03-11T17:00:38.522Z,17.90
2018-03-11T17:03:06.653Z,17.70
2018-03-11T17:05:34.877Z,17.40
2018-03-11T17:08:03.021Z,17.30
2018-03-11T17:10:31.938Z,17.00
2018-03-11T17:13:00.113Z,16.90
2018-03-11T17:15:28.259Z,16.70
2018-03-11T17:17:57.175Z,16.20
2018-03-11T17:20:25.355Z,16.10
2018-03-11T17:22:53.491Z,15.90
2018-03-11T17:25:22.401Z,15.90
2018-03-11T17:27:50.558Z,15.90
2018-03-11T17:30:18.762Z,16.00
2018-03-11T17:32:46.956Z,16.00
2018-03-11T17:35:15.053Z,15.90
2018-03-11T17:37:43.236Z,15.90
2018-03-11T17:40:12.144Z,15.80
2018-03-11T17:42:40.310Z,15.80
2018-03-11T17:45:09.256Z,15.70
2018-03-11T17:47:37.402Z,15.70
2018-03-11T17:50:05.540Z,15.70
2018-03-11T17:52:34.472Z,15.50
2018-03-11T17:55:02.624Z,15.50
2018-03-11T17:57:30.769Z,15.50
2018-03-11T17:59:59.715Z,15.30
2018-03-11T18:02:28.132Z,15.30
2018-03-11T18:04:57.057Z,15.30
2018-03-11T18:07:25.223Z,15.20
2018-03-11T18:09:53.368Z,15.20
2018-03-11T18:12:21.604Z,15.10
2018-03-11T18:14:49.769Z,15.10
2018-03-11T18:17:17.921Z,15.00
2018-03-11T18:19:46.091Z,15.00
2018-03-11T18:22:14.266Z,14.90
2018-03-11T18:24:42.467Z,14.90
2018-03-11T18:27:10.727Z,14.90
2018-03-11T18:29:38.863Z,14.80
2018-03-11T18:32:08.580Z,14.70
2018-03-11T18:34:36.752Z,14.70
2018-03-11T18:37:04.897Z,14.70
2018-03-11T18:39:33.043Z,14.60
2018-03-11T18:42:01.235Z,14.50
2018-03-11T18:44:29.740Z,14.50
2018-03-11T18:46:59.083Z,14.50
2018-03-11T18:49:27.254Z,14.40
2018-03-11T18:51:55.399Z,14.40
2018-03-11T18:54:23.550Z,14.40
2018-03-11T18:56:51.708Z,14.40
2018-03-11T18:59:19.972Z,14.30
2018-03-11T19:01:48.190Z,14.30
2018-03-11T19:04:17.730Z,14.10
2018-03-11T19:06:45.874Z,14.10
2018-03-11T19:09:14.200Z,14.10
2018-03-11T19:11:42.352Z,14.00
2018-03-11T19:14:10.530Z,14.00
2018-03-11T19:16:38.723Z,13.90
2018-03-11T19:19:06.878Z,13.90
2018-03-11T19:21:35.037Z,13.80
2018-03-11T19:24:03.206Z,13.80
2018-03-11T19:26:31.395Z,13.70
2018-03-11T19:28:59.544Z,13.70
2018-03-11T19:31:27.718Z,13.60
2018-03-11T19:33:55.907Z,13.60
2018-03-11T19:41:14.480Z,13.40
2018-03-11T19:43:42.635Z,13.40
2018-03-11T19:46:10.852Z,13.40
2018-03-11T19:48:39.026Z,13.30
2018-03-11T19:51:07.192Z,13.30
2018-03-11T19:53:35.363Z,13.30
2018-03-11T19:56:03.643Z,13.20
2018-03-11T19:58:31.810Z,13.20
2018-03-11T20:01:00.200Z,13.10
2018-03-11T20:03:28.366Z,13.10
2018-03-11T20:05:56.515Z,13.10
2018-03-11T20:08:24.713Z,13.10
2018-03-11T20:10:52.860Z,13.10
2018-03-11T20:13:21.020Z,13.10
2018-03-11T20:15:49.203Z,13.00
2018-03-11T20:18:17.356Z,13.00
2018-03-11T20:20:45.530Z,13.00
2018-03-11T20:23:13.703Z,12.90
2018-03-11T20:25:41.911Z,13.00
2018-03-11T20:28:10.068Z,12.90
2018-03-11T20:30:38.227Z,12.90
2018-03-11T20:33:06.374Z,12.80
2018-03-11T20:35:35.667Z,12.80
2018-03-11T20:38:04.615Z,12.80
2018-03-11T20:40:32.767Z,12.80
2018-03-11T20:43:00.915Z,12.80
2018-03-11T20:45:29.909Z,12.80
2018-03-11T20:47:58.128Z,12.70
2018-03-11T20:50:26.331Z,12.80
2018-03-11T20:52:54.483Z,12.70
2018-03-11T20:55:22.646Z,12.70
2018-03-11T20:57:50.835Z,12.70
2018-03-11T21:00:18.985Z,12.70
2018-03-11T21:02:47.133Z,12.60
2018-03-11T21:05:15.292Z,12.60
2018-03-11T21:07:44.251Z,12.50
2018-03-11T21:10:12.398Z,12.50
2018-03-11T21:12:40.547Z,12.50
2018-03-11T21:15:08.714Z,12.40
2018-03-11T21:17:36.853Z,12.40
2018-03-11T21:20:05.088Z,12.40
2018-03-11T21:22:33.266Z,12.30
2018-03-11T21:25:01.414Z,12.30
2018-03-11T21:27:29.570Z,12.30
2018-03-11T21:29:57.747Z,12.30
2018-03-11T21:32:26.011Z,12.30
2018-03-11T21:34:54.934Z,12.20
2018-03-11T21:37:23.089Z,12.20
2018-03-11T21:39:51.241Z,12.20
2018-03-11T21:42:20.171Z,12.10
2018-03-11T21:44:48.313Z,12.10
2018-03-11T21:47:17.227Z,12.10
2018-03-11T21:49:45.394Z,12.10
2018-03-11T21:52:13.554Z,12.10
2018-03-11T21:54:42.466Z,12.00
2018-03-11T21:57:10.630Z,12.00
2018-03-11T21:59:38.771Z,12.00
2018-03-11T22:02:08.190Z,11.90
2018-03-11T22:04:37.111Z,11.90
2018-03-11T22:07:05.269Z,11.80
2018-03-11T22:09:33.446Z,11.80
2018-03-11T22:12:01.590Z,11.80
2018-03-11T22:14:30.517Z,11.70
2018-03-11T22:16:58.682Z,11.70
2018-03-11T22:19:26.858Z,11.70
2018-03-11T22:21:55.002Z,11.70
2018-03-11T22:24:24.035Z,11.60
2018-03-11T22:26:52.179Z,11.60
2018-03-11T22:29:20.322Z,11.60
2018-03-11T22:31:48.494Z,11.60
2018-03-11T22:34:16.651Z,11.60
2018-03-11T22:36:44.806Z,11.60
2018-03-11T22:39:12.992Z,11.60
2018-03-11T22:41:41.126Z,11.50
2018-03-11T22:44:09.263Z,11.50
2018-03-11T22:46:38.186Z,11.30
2018-03-11T22:49:06.371Z,11.30
2018-03-11T22:51:34.515Z,11.40
2018-03-11T22:54:02.658Z,11.40
2018-03-11T22:56:31.424Z,11.40
2018-03-11T22:58:59.922Z,11.40
2018-03-11T23:01:28.058Z,11.40
2018-03-11T23:03:56.231Z,11.40
2018-03-11T23:06:24.392Z,11.50
2018-03-11T23:08:52.564Z,11.40
2018-03-11T23:11:20.738Z,11.40
2018-03-11T23:13:48.874Z,11.40
2018-03-11T23:16:17.782Z,11.40
2018-03-11T23:19:04.690Z,11.40
2018-03-11T23:21:33.718Z,11.40
2018-03-11T23:24:01.861Z,11.40
2018-03-11T23:26:30.023Z,11.30
2018-03-11T23:28:59.527Z,11.30
2018-03-11T23:31:28.483Z,11.30
2018-03-11T23:33:56.629Z,11.30
2018-03-11T23:36:24.790Z,11.30
2018-03-11T23:38:53.373Z,11.30
2018-03-11T23:41:21.527Z,11.20
2018-03-11T23:43:49.753Z,11.20
2018-03-11T23:46:17.906Z,11.10
2018-03-11T23:48:46.068Z,11.10
2018-03-11T23:51:14.246Z,11.10
2018-03-11T23:53:42.391Z,11.00
2018-03-11T23:56:10.539Z,11.00
2018-03-11T23:58:38.771Z,11.00
